createdAt,value
2019-02-10T00:00:39.319Z,100330.61
2019-02-10T00:03:07.865Z,100322.97
2019-02-10T00:05:36.423Z,100325.80
2019-02-10T00:08:05.033Z,100321.33
2019-02-10T00:10:33.511Z,100325.30
2019-02-10T00:13:32.706Z,100324.30
2019-02-10T00:16:03.469Z,100329.78
2019-02-10T00:18:32.013Z,100335.23
2019-02-10T00:21:00.860Z,100338.53
2019-02-10T00:23:29.345Z,100335.23
2019-02-10T00:25:57.923Z,100334.70
2019-02-10T00:28:26.724Z,100333.69
2019-02-10T00:30:55.267Z,100339.70
2019-02-10T00:33:23.750Z,100342.18
2019-02-10T00:35:52.278Z,100345.98
2019-02-10T00:38:20.837Z,100342.84
2019-02-10T00:40:49.682Z,100340.84
2019-02-10T00:43:18.414Z,100335.87
2019-02-10T00:45:46.896Z,100339.51
2019-02-10T00:48:15.638Z,100338.70
2019-02-10T00:50:44.157Z,100338.86
2019-02-10T00:53:12.725Z,100336.06
2019-02-10T00:55:41.310Z,100333.22
2019-02-10T00:58:09.854Z,100335.54
2019-02-10T01:00:38.672Z,100327.38
2019-02-10T01:03:07.320Z,100332.01
2019-02-10T01:05:35.805Z,100334.20
2019-02-10T01:08:04.648Z,100326.89
2019-02-10T01:10:33.327Z,100319.93
2019-02-10T01:13:02.212Z,100320.23
2019-02-10T01:15:30.837Z,100321.23
2019-02-10T01:17:59.407Z,100308.97
2019-02-10T01:20:28.093Z,100309.80
2019-02-10T01:22:56.605Z,100302.52
2019-02-10T01:25:25.485Z,100304.31
2019-02-10T01:27:54.126Z,100301.33
2019-02-10T01:30:22.765Z,100308.60
2019-02-10T01:32:51.417Z,100306.94
2019-02-10T01:35:19.986Z,100302.94
2019-02-10T01:37:48.458Z,100304.94
2019-02-10T01:40:17.015Z,100299.63
2019-02-10T01:42:45.995Z,100304.90
2019-02-10T01:45:14.625Z,100292.98
2019-02-10T01:47:43.290Z,100296.95
2019-02-10T01:50:12.000Z,100290.61
2019-02-10T01:52:40.585Z,100286.29
2019-02-10T01:55:13.562Z,100285.95
2019-02-10T01:57:42.093Z,100283.48
2019-02-10T02:00:16.524Z,100288.22
2019-02-10T02:02:45.140Z,100281.60
2019-02-10T02:05:13.772Z,100278.28
2019-02-10T02:07:42.597Z,100282.25
2019-02-10T02:10:12.889Z,100281.64
2019-02-10T02:12:41.739Z,100276.34
2019-02-10T02:15:13.252Z,100273.17
2019-02-10T02:17:41.686Z,100274.45
2019-02-10T02:20:11.758Z,100266.02
2019-02-10T02:22:40.392Z,100266.63
2019-02-10T02:25:10.438Z,100268.14
2019-02-10T02:27:39.101Z,100264.81
2019-02-10T02:30:12.623Z,100272.41
2019-02-10T02:32:41.219Z,100268.77
2019-02-10T02:35:10.047Z,100265.68
2019-02-10T02:37:38.665Z,100264.31
2019-02-10T02:40:09.411Z,100267.27
2019-02-10T02:42:38.069Z,100259.20
2019-02-10T02:45:09.515Z,100257.70
2019-02-10T02:47:38.076Z,100248.77
2019-02-10T02:50:08.471Z,100250.25
2019-02-10T02:52:37.005Z,100245.14
2019-02-10T02:55:07.296Z,100242.98
2019-02-10T02:57:35.861Z,100235.84
2019-02-10T03:00:05.486Z,100230.24
2019-02-10T03:02:34.342Z,100233.53
2019-02-10T03:05:02.898Z,100224.45
2019-02-10T03:07:31.356Z,100226.12
2019-02-10T03:09:59.896Z,100221.97
2019-02-10T03:12:28.464Z,100214.02
2019-02-10T03:14:57.278Z,100207.37
2019-02-10T03:17:25.837Z,100217.95
2019-02-10T03:19:54.354Z,100213.64
2019-02-10T03:22:23.131Z,100205.06
2019-02-10T03:24:52.079Z,100201.73
2019-02-10T03:27:20.709Z,100200.75
2019-02-10T03:29:49.260Z,100190.95
2019-02-10T03:32:17.927Z,100193.11
2019-02-10T03:34:46.430Z,100188.31
2019-02-10T03:37:15.158Z,100191.75
2019-02-10T03:39:43.729Z,100187.78
2019-02-10T03:42:12.330Z,100187.78
2019-02-10T03:44:40.962Z,100182.10
2019-02-10T03:47:09.545Z,100180.78
2019-02-10T03:49:38.004Z,100178.81
2019-02-10T03:52:06.475Z,100185.09
2019-02-10T03:54:35.089Z,100181.81
2019-02-10T03:57:03.856Z,100174.12
2019-02-10T03:59:32.574Z,100175.98
2019-02-10T04:02:01.070Z,100174.95
2019-02-10T04:04:29.618Z,100168.80
2019-02-10T04:06:58.209Z,100163.55
2019-02-10T04:09:26.762Z,100164.34
2019-02-10T04:11:55.308Z,100162.71
2019-02-10T04:14:23.886Z,100160.06
2019-02-10T04:16:52.835Z,100157.42
2019-02-10T04:19:21.414Z,100148.66
2019-02-10T04:21:50.003Z,100152.13
2019-02-10T04:24:18.490Z,100141.70
2019-02-10T04:26:47.192Z,100143.67
2019-02-10T04:29:15.865Z,100143.55
2019-02-10T04:31:44.367Z,100141.06
2019-02-10T04:34:12.959Z,100135.63
2019-02-10T04:36:41.455Z,100135.96
2019-02-10T04:39:10.058Z,100135.43
2019-02-10T04:41:38.561Z,100128.83
2019-02-10T04:44:07.211Z,100129.65
2019-02-10T04:46:35.730Z,100126.77
2019-02-10T04:49:04.280Z,100117.22
2019-02-10T04:51:33.007Z,100113.25
2019-02-10T04:54:01.797Z,100104.14
2019-02-10T04:56:30.629Z,100101.66
2019-02-10T04:58:59.130Z,100100.52
2019-02-10T05:01:27.632Z,100094.36
2019-02-10T05:03:56.438Z,100095.72
2019-02-10T05:06:25.085Z,100092.25
2019-02-10T05:08:53.505Z,100088.43
2019-02-10T05:11:22.204Z,100079.70
2019-02-10T05:13:50.948Z,100076.22
2019-02-10T05:16:19.482Z,100080.46
2019-02-10T05:18:48.046Z,100077.66
2019-02-10T05:21:16.518Z,100071.39
2019-02-10T05:23:45.011Z,100072.03
2019-02-10T05:26:13.448Z,100065.31
2019-02-10T05:28:42.339Z,100060.51
2019-02-10T05:31:10.883Z,100057.06
2019-02-10T05:33:39.519Z,100051.94
2019-02-10T05:36:08.380Z,100049.78
2019-02-10T05:38:37.433Z,100038.55
2019-02-10T05:41:06.097Z,100044.00
2019-02-10T05:43:34.876Z,100037.42
2019-02-10T05:46:03.511Z,100027.20
2019-02-10T05:48:32.082Z,100022.06
2019-02-10T05:51:00.553Z,100021.05
2019-02-10T05:53:29.006Z,100021.20
2019-02-10T05:55:57.551Z,100006.51
2019-02-10T05:58:27.505Z,100001.88
2019-02-10T06:00:59.177Z,99990.32
2019-02-10T06:03:28.104Z,99981.40
2019-02-10T06:05:56.672Z,99981.73
2019-02-10T06:08:25.192Z,99977.78
2019-02-10T06:10:53.950Z,99973.16
2019-02-10T06:13:22.614Z,99968.17
2019-02-10T06:15:51.099Z,99966.36
2019-02-10T06:18:19.635Z,99961.58
2019-02-10T06:20:48.157Z,99960.73
2019-02-10T06:23:16.629Z,99955.78
2019-02-10T06:25:45.062Z,99961.56
2019-02-10T06:28:13.941Z,99956.60
2019-02-10T06:30:42.512Z,99943.22
2019-02-10T06:33:11.365Z,99944.36
2019-02-10T06:35:39.901Z,99944.22
2019-02-10T06:38:08.368Z,99931.48
2019-02-10T06:40:37.024Z,99935.44
2019-02-10T06:43:05.436Z,99926.52
2019-02-10T06:45:33.882Z,99927.99
2019-02-10T06:48:02.469Z,99931.98
2019-02-10T06:50:31.038Z,99930.81
2019-02-10T06:52:59.693Z,99928.16
2019-02-10T06:55:28.284Z,99928.16
2019-02-10T06:57:56.940Z,99921.88
2019-02-10T07:00:27.171Z,99920.55
2019-02-10T07:03:28.045Z,99918.23
2019-02-10T07:05:56.731Z,99908.16
2019-02-10T07:08:30.542Z,99911.63
2019-02-10T07:10:55.763Z,99895.41
2019-02-10T07:13:45.081Z,99887.11
2019-02-10T07:16:43.728Z,99881.50
2019-02-10T07:19:40.394Z,99875.55
2019-02-10T07:22:34.340Z,99874.55
2019-02-10T07:25:20.984Z,99872.56
2019-02-10T07:28:01.415Z,99859.47
2019-02-10T07:30:51.114Z,99861.30
2019-02-10T07:33:33.357Z,99857.33
2019-02-10T07:36:31.807Z,99852.67
2019-02-10T07:39:18.330Z,99842.75
2019-02-10T07:42:10.650Z,99833.80
2019-02-10T07:44:51.227Z,99828.02
2019-02-10T07:47:34.025Z,99815.23
2019-02-10T07:50:11.602Z,99807.46
2019-02-10T07:52:59.628Z,99798.06
2019-02-10T07:56:04.473Z,99795.55
2019-02-10T07:58:51.075Z,99801.80
2019-02-10T08:01:22.679Z,99802.13
2019-02-10T08:04:00.194Z,99795.34
2019-02-10T08:06:31.799Z,99786.53
2019-02-10T08:09:12.609Z,99778.75
2019-02-10T08:11:52.860Z,99774.45
2019-02-10T08:14:33.063Z,99779.37
2019-02-10T08:17:19.559Z,99770.97
2019-02-10T08:19:51.411Z,99778.59
2019-02-10T08:22:42.632Z,99765.22
2019-02-10T08:25:28.939Z,99758.59
2019-02-10T08:28:21.245Z,99752.26
2019-02-10T08:30:52.749Z,99743.16
2019-02-10T08:33:30.562Z,99740.72
2019-02-10T08:36:14.170Z,99735.45
2019-02-10T08:39:00.597Z,99718.91
2019-02-10T08:41:41.160Z,99707.14
2019-02-10T08:44:21.906Z,99700.70
2019-02-10T08:47:14.451Z,99694.58
2019-02-10T08:50:01.533Z,99679.84
2019-02-10T08:52:51.701Z,99662.47
2019-02-10T08:55:15.657Z,99655.02
2019-02-10T08:57:44.396Z,99647.73
2019-02-10T09:00:12.902Z,99628.53
2019-02-10T09:02:41.662Z,99616.66
2019-02-10T09:05:10.335Z,99609.05
2019-02-10T09:07:38.821Z,99605.79
2019-02-10T09:10:12.555Z,99593.38
2019-02-10T09:12:41.503Z,99594.88
2019-02-10T09:15:12.072Z,99582.31
2019-02-10T09:17:40.607Z,99570.91
2019-02-10T09:20:11.167Z,99558.87
2019-02-10T09:22:39.771Z,99549.44
2019-02-10T09:25:10.723Z,99542.67
2019-02-10T09:27:39.244Z,99522.81
2019-02-10T09:30:11.108Z,99517.62
2019-02-10T09:32:39.694Z,99502.91
2019-02-10T09:35:09.235Z,99494.78
2019-02-10T09:37:37.879Z,99485.20
2019-02-10T09:40:11.639Z,99481.40
2019-02-10T09:42:40.268Z,99474.44
2019-02-10T09:45:11.255Z,99467.34
2019-02-10T09:47:39.878Z,99459.45
2019-02-10T09:50:14.130Z,99448.99
2019-02-10T09:52:42.655Z,99438.41
2019-02-10T09:55:11.355Z,99433.75
2019-02-10T09:57:41.286Z,99415.27
2019-02-10T10:00:14.323Z,99407.38
2019-02-10T10:02:43.035Z,99408.06
2019-02-10T10:05:13.245Z,99404.36
2019-02-10T10:07:41.823Z,99393.33
2019-02-10T10:10:12.570Z,99383.56
2019-02-10T10:12:41.020Z,99372.16
2019-02-10T10:15:12.469Z,99365.13
2019-02-10T10:17:41.113Z,99351.90
2019-02-10T10:20:15.404Z,99340.84
2019-02-10T10:22:43.970Z,99343.75
2019-02-10T10:25:12.612Z,99325.78
2019-02-10T10:27:41.223Z,99316.66
2019-02-10T10:30:18.059Z,99310.49
2019-02-10T10:32:46.512Z,99299.43
2019-02-10T10:35:15.132Z,99284.52
2019-02-10T10:37:44.195Z,99266.66
2019-02-10T10:40:12.694Z,99258.87
2019-02-10T10:42:41.296Z,99251.81
2019-02-10T10:45:14.643Z,99251.11
2019-02-10T10:47:43.129Z,99225.89
2019-02-10T10:50:13.113Z,99218.66
2019-02-10T10:52:41.651Z,99206.25
2019-02-10T10:55:11.854Z,99198.48
2019-02-10T10:57:40.562Z,99192.48
2019-02-10T11:00:14.183Z,99187.19
2019-02-10T11:02:42.781Z,99178.56
2019-02-10T11:05:11.757Z,99176.88
2019-02-10T11:07:40.216Z,99164.78
2019-02-10T11:10:11.014Z,99161.38
2019-02-10T11:12:39.843Z,99159.23
2019-02-10T11:15:13.777Z,99141.45
2019-02-10T11:17:42.596Z,99146.32
2019-02-10T11:20:11.970Z,99136.55
2019-02-10T11:22:40.529Z,99130.31
2019-02-10T11:25:10.334Z,99116.04
2019-02-10T11:27:38.874Z,99112.39
2019-02-10T11:30:14.866Z,99094.13
2019-02-10T11:32:43.381Z,99091.71
2019-02-10T11:35:12.079Z,99083.45
2019-02-10T11:37:40.717Z,99079.11
2019-02-10T11:40:13.543Z,99054.18
2019-02-10T11:42:42.195Z,99076.24
2019-02-10T11:45:12.756Z,99058.16
2019-02-10T11:47:41.247Z,99051.16
2019-02-10T11:50:11.900Z,99050.38
2019-02-10T11:52:40.449Z,99030.33
2019-02-10T11:55:10.515Z,99037.14
2019-02-10T11:57:39.086Z,99028.41
2019-02-10T12:00:10.907Z,99026.27
2019-02-10T12:02:40.606Z,99022.61
2019-02-10T12:05:10.571Z,99021.02
2019-02-10T12:07:39.043Z,99012.69
2019-02-10T12:10:14.752Z,99003.09
2019-02-10T12:12:43.488Z,98997.16
2019-02-10T12:15:14.767Z,98979.66
2019-02-10T12:17:43.273Z,98978.65
2019-02-10T12:20:13.501Z,98977.83
2019-02-10T12:22:49.603Z,98973.66
2019-02-10T12:25:12.463Z,98966.44
2019-02-10T12:27:41.082Z,98956.06
2019-02-10T12:30:14.240Z,98948.71
2019-02-10T12:32:43.103Z,98952.41
2019-02-10T12:35:13.019Z,98941.89
2019-02-10T12:37:41.685Z,98936.72
2019-02-10T12:40:12.303Z,98934.19
2019-02-10T12:42:41.163Z,98912.06
2019-02-10T12:45:12.326Z,98907.20
2019-02-10T12:47:42.587Z,98901.68
2019-02-10T12:50:13.356Z,98900.58
2019-02-10T12:52:44.238Z,98892.62
2019-02-10T12:55:13.225Z,98900.27
2019-02-10T12:57:42.003Z,98888.11
2019-02-10T13:00:15.908Z,98872.75
2019-02-10T13:02:44.602Z,98866.91
2019-02-10T13:05:13.239Z,98862.73
2019-02-10T13:07:42.760Z,98859.58
2019-02-10T13:10:17.634Z,98841.84
2019-02-10T13:12:45.753Z,98841.77
2019-02-10T13:15:15.010Z,98835.84
2019-02-10T13:17:43.771Z,98830.42
2019-02-10T13:20:13.193Z,98824.42
2019-02-10T13:22:42.073Z,98825.86
2019-02-10T13:25:11.676Z,98811.48
2019-02-10T13:27:40.991Z,98810.98
2019-02-10T13:30:12.498Z,98804.66
2019-02-10T13:32:41.088Z,98800.27
2019-02-10T13:35:09.566Z,98800.69
2019-02-10T13:37:38.135Z,98793.75
2019-02-10T13:40:18.358Z,98787.55
2019-02-10T13:42:46.906Z,98774.06
2019-02-10T13:45:15.490Z,98773.47
2019-02-10T13:47:44.184Z,98767.13
2019-02-10T13:50:18.021Z,98763.66
2019-02-10T13:52:46.295Z,98767.04
2019-02-10T13:55:15.978Z,98760.41
2019-02-10T13:57:44.723Z,98767.94
2019-02-10T14:00:15.765Z,98764.19
2019-02-10T14:02:44.404Z,98762.75
2019-02-10T14:05:13.340Z,98745.91
2019-02-10T14:07:42.049Z,98749.30
2019-02-10T14:10:16.090Z,98739.90
2019-02-10T14:12:44.795Z,98745.91
2019-02-10T14:15:17.387Z,98732.14
2019-02-10T14:17:45.867Z,98724.92
2019-02-10T14:20:16.124Z,98721.95
2019-02-10T14:22:44.656Z,98731.05
2019-02-10T14:25:13.314Z,98719.81
2019-02-10T14:27:41.948Z,98719.00
2019-02-10T14:30:23.553Z,98716.45
2019-02-10T14:32:52.347Z,98708.50
2019-02-10T14:35:20.811Z,98712.87
2019-02-10T14:37:49.288Z,98707.77
2019-02-10T14:40:17.862Z,98696.34
2019-02-10T14:42:46.559Z,98698.09
2019-02-10T14:45:16.011Z,98690.75
2019-02-10T14:47:44.828Z,98694.12
2019-02-10T14:50:20.350Z,98691.66
2019-02-10T14:52:49.245Z,98684.13
2019-02-10T14:55:18.773Z,98684.13
2019-02-10T14:57:47.463Z,98670.25
2019-02-10T15:00:16.686Z,98673.72
2019-02-10T15:02:45.360Z,98668.22
2019-02-10T15:05:14.019Z,98672.47
2019-02-10T15:07:42.812Z,98657.17
2019-02-10T15:10:21.657Z,98657.81
2019-02-10T15:12:50.469Z,98653.63
2019-02-10T15:15:19.026Z,98644.75
2019-02-10T15:17:47.578Z,98645.45
2019-02-10T15:20:16.270Z,98639.25
2019-02-10T15:22:44.911Z,98624.16
2019-02-10T15:25:14.429Z,98622.52
2019-02-10T15:27:42.962Z,98625.17
2019-02-10T15:30:13.136Z,98621.70
2019-02-10T15:32:41.650Z,98611.71
2019-02-10T15:35:10.221Z,98606.50
2019-02-10T15:37:39.111Z,98601.30
2019-02-10T15:40:10.817Z,98602.02
2019-02-10T15:42:39.700Z,98598.55
2019-02-10T15:45:11.331Z,98595.19
2019-02-10T15:47:39.875Z,98591.21
2019-02-10T15:50:13.893Z,98586.41
2019-02-10T15:52:42.378Z,98578.86
2019-02-10T15:55:14.933Z,98576.83
2019-02-10T15:57:43.582Z,98566.53
2019-02-10T16:00:28.620Z,98565.61
2019-02-10T16:02:57.161Z,98563.26
2019-02-10T16:05:25.600Z,98564.00
2019-02-10T16:07:54.380Z,98556.94
2019-02-10T16:10:23.081Z,98551.33
2019-02-10T16:12:51.733Z,98551.84
2019-02-10T16:15:20.819Z,98547.35
2019-02-10T16:17:49.915Z,98546.02
2019-02-10T16:20:18.740Z,98534.70
2019-02-10T16:22:47.195Z,98540.11
2019-02-10T16:25:15.749Z,98529.41
2019-02-10T16:27:44.447Z,98531.85
2019-02-10T16:30:17.975Z,98518.67
2019-02-10T16:32:50.081Z,98517.88
2019-02-10T16:35:18.705Z,98518.39
2019-02-10T16:37:47.340Z,98508.98
2019-02-10T16:40:24.355Z,98512.34
2019-02-10T16:42:54.884Z,98509.52
2019-02-10T16:45:23.957Z,98504.31
2019-02-10T16:47:53.138Z,98497.76
2019-02-10T16:50:21.812Z,98501.33
2019-02-10T16:52:50.421Z,98504.49
2019-02-10T16:55:21.391Z,98505.41
2019-02-10T16:57:50.001Z,98504.77
2019-02-10T17:00:18.646Z,98500.48
2019-02-10T17:02:47.277Z,98498.00
2019-02-10T17:05:15.845Z,98489.77
2019-02-10T17:07:44.429Z,98486.30
2019-02-10T17:10:20.206Z,98490.66
2019-02-10T17:12:48.811Z,98488.92
2019-02-10T17:15:17.444Z,98489.22
2019-02-10T17:17:46.434Z,98482.25
2019-02-10T17:20:15.947Z,98480.99
2019-02-10T17:22:44.554Z,98481.09
2019-02-10T17:25:27.702Z,98481.00
2019-02-10T17:27:56.210Z,98474.16
2019-02-10T17:30:24.736Z,98474.33
2019-02-10T17:32:53.571Z,98470.14
2019-02-10T17:35:22.174Z,98470.66
2019-02-10T17:37:50.856Z,98472.17
2019-02-10T17:40:22.494Z,98472.03
2019-02-10T17:42:50.990Z,98481.16
2019-02-10T17:45:19.590Z,98472.02
2019-02-10T17:47:48.097Z,98476.52
2019-02-10T17:50:16.659Z,98467.83
2019-02-10T17:52:45.203Z,98479.33
2019-02-10T17:55:13.720Z,98479.72
2019-02-10T17:57:42.335Z,98468.14
2019-02-10T18:00:18.571Z,98466.08
2019-02-10T18:02:47.453Z,98474.50
2019-02-10T18:05:16.099Z,98485.88
2019-02-10T18:07:44.671Z,98483.38
2019-02-10T18:10:15.524Z,98478.48
2019-02-10T18:12:44.167Z,98478.19
2019-02-10T18:15:14.319Z,98482.78
2019-02-10T18:17:56.362Z,98493.19
2019-02-10T18:20:26.478Z,98484.70
2019-02-10T18:23:08.432Z,98486.49
2019-02-10T18:25:41.695Z,98479.34
2019-02-10T18:28:12.018Z,98491.08
2019-02-10T18:30:50.906Z,98489.39
2019-02-10T18:33:24.302Z,98477.73
2019-02-10T18:36:00.454Z,98487.55
2019-02-10T18:38:30.580Z,98508.56
2019-02-10T18:41:07.077Z,98504.66
2019-02-10T18:43:37.229Z,98515.14
2019-02-10T18:46:13.300Z,98513.66
2019-02-10T18:48:43.406Z,98523.52
2019-02-10T18:51:13.764Z,98535.89
2019-02-10T18:53:46.537Z,98540.09
2019-02-10T18:56:31.495Z,98535.02
2019-02-10T18:59:04.694Z,98531.05
2019-02-10T19:01:34.814Z,98538.81
2019-02-10T19:04:05.189Z,98534.62
2019-02-10T19:06:50.151Z,98542.68
2019-02-10T19:09:36.375Z,98537.67
2019-02-10T19:12:15.581Z,98539.46
2019-02-10T19:14:45.716Z,98540.34
2019-02-10T19:17:34.016Z,98530.47
2019-02-10T19:20:04.237Z,98541.16
2019-02-10T19:22:46.327Z,98541.97
2019-02-10T19:25:22.560Z,98537.47
2019-02-10T19:28:08.567Z,98534.61
2019-02-10T19:30:41.466Z,98536.96
2019-02-10T19:33:14.590Z,98549.12
2019-02-10T19:35:44.889Z,98541.91
2019-02-10T19:38:21.072Z,98534.76
2019-02-10T19:41:08.930Z,98535.54
2019-02-10T19:43:41.753Z,98544.67
2019-02-10T19:46:11.940Z,98548.88
2019-02-10T19:48:51.130Z,98537.22
2019-02-10T19:51:24.382Z,98535.89
2019-02-10T19:54:12.295Z,98539.81
2019-02-10T19:56:58.295Z,98539.58
2019-02-10T19:59:40.612Z,98540.59
2019-02-10T20:02:26.766Z,98541.86
2019-02-10T20:04:56.860Z,98553.87
2019-02-10T20:07:44.185Z,98548.30
2019-02-10T20:10:14.493Z,98541.98
2019-02-10T20:12:47.081Z,98542.48
2019-02-10T20:15:17.250Z,98552.91
2019-02-10T20:17:50.249Z,98552.09
2019-02-10T20:20:26.210Z,98534.31
2019-02-10T20:23:11.252Z,98533.20
2019-02-10T20:25:41.616Z,98533.34
2019-02-10T20:28:20.651Z,98545.80
2019-02-10T20:30:50.980Z,98556.52
2019-02-10T20:33:21.370Z,98562.55
2019-02-10T20:35:54.498Z,98557.23
2019-02-10T20:38:27.698Z,98558.87
2019-02-10T20:41:00.332Z,98563.58
2019-02-10T20:43:30.549Z,98555.30
2019-02-10T20:46:00.772Z,98547.34
2019-02-10T20:48:47.103Z,98540.70
2019-02-10T20:51:17.261Z,98552.06
2019-02-10T20:53:47.546Z,98568.27
2019-02-10T20:56:23.488Z,98565.51
2019-02-10T20:58:59.550Z,98575.22
2019-02-10T21:01:38.585Z,98584.51
2019-02-10T21:04:11.531Z,98584.45
2019-02-10T21:06:41.773Z,98585.26
2019-02-10T21:09:21.004Z,98580.97
2019-02-10T21:12:03.654Z,98575.83
2019-02-10T21:14:50.050Z,98578.17
2019-02-10T21:17:20.243Z,98573.31
2019-02-10T21:19:50.444Z,98567.55
2019-02-10T21:22:29.527Z,98568.00
2019-02-10T21:25:08.448Z,98580.83
2019-02-10T21:27:56.626Z,98588.08
2019-02-10T21:30:38.671Z,98591.45
2019-02-10T21:33:14.936Z,98586.59
2019-02-10T21:35:47.556Z,98582.87
2019-02-10T21:38:26.466Z,98582.87
2019-02-10T21:41:05.639Z,98584.00
2019-02-10T21:43:41.368Z,98587.91
2019-02-10T21:46:20.714Z,98598.23
2019-02-10T21:48:50.935Z,98591.39
2019-02-10T21:51:19.508Z,98585.65
2019-02-10T21:53:48.180Z,98580.08
2019-02-10T21:56:16.787Z,98577.05
2019-02-10T21:58:45.412Z,98586.06
2019-02-10T22:01:13.997Z,98589.25
2019-02-10T22:03:42.543Z,98583.87
2019-02-10T22:06:11.230Z,98569.63
2019-02-10T22:08:39.802Z,98583.47
2019-02-10T22:11:08.364Z,98572.58
2019-02-10T22:13:37.006Z,98576.34
2019-02-10T22:16:05.654Z,98578.70
2019-02-10T22:18:34.328Z,98571.07
2019-02-10T22:21:03.267Z,98578.23
2019-02-10T22:23:32.213Z,98589.97
2019-02-10T22:26:00.756Z,98586.11
2019-02-10T22:28:29.374Z,98596.31
2019-02-10T22:30:58.003Z,98592.73
2019-02-10T22:33:26.455Z,98590.27
2019-02-10T22:35:55.182Z,98602.94
2019-02-10T22:38:23.724Z,98592.94
2019-02-10T22:40:52.241Z,98601.13
2019-02-10T22:43:20.750Z,98598.04
2019-02-10T22:45:49.373Z,98602.12
2019-02-10T22:48:18.055Z,98609.77
2019-02-10T22:50:46.679Z,98616.72
2019-02-10T22:53:15.272Z,98605.48
2019-02-10T22:55:43.829Z,98609.27
2019-02-10T22:58:12.472Z,98607.12
2019-02-10T23:00:50.946Z,98598.02
2019-02-10T23:03:19.623Z,98589.17
2019-02-10T23:05:48.458Z,98587.84
2019-02-10T23:08:17.041Z,98590.50
2019-02-10T23:10:45.639Z,98592.84
2019-02-10T23:13:14.166Z,98584.37
2019-02-10T23:15:42.792Z,98587.86
2019-02-10T23:18:11.458Z,98595.08
2019-02-10T23:20:40.026Z,98582.13
2019-02-10T23:23:09.003Z,98570.81
2019-02-10T23:25:37.674Z,98582.95
2019-02-10T23:28:06.312Z,98575.09
2019-02-10T23:30:35.136Z,98574.79
2019-02-10T23:33:03.644Z,98585.20
2019-02-10T23:35:32.438Z,98581.11
2019-02-10T23:38:01.279Z,98580.80
2019-02-10T23:40:29.875Z,98582.77
2019-02-10T23:43:02.247Z,98583.14
2019-02-10T23:45:29.055Z,98582.64
2019-02-10T23:47:57.506Z,98588.47
2019-02-10T23:50:26.071Z,98585.83
2019-02-10T23:52:54.864Z,98588.30
2019-02-10T23:55:23.526Z,98602.27
2019-02-10T23:57:52.113Z,98601.15
